Time;durP1;ratioP1;P1;durP2;ratioP2;P2;SDS_P1;SDS_P2;PMS_P1;PMS_P2;Temp;Humidity;BMP_temperature;BMP_pressure;BME280_temperature;BME280_humidity;BME280_pressure;Samples;Min_cycle;Max_cycle;Signal;HPM_P1;HPM_P2
2022/10/05 00:07:01;;;;;;;;;;;;;;;;;;;;;
2022/10/05 00:16:53;;;;;;;5.00;4.53;;;6.60;99.90;;;;;;5840776;24;20026;-88
2022/10/05 00:20:53;;;;;;;8.05;4.78;;;6.60;99.90;;;;;;5679797;25;20036;-89
2022/10/05 00:25:40;;;;;;;;;;;;;;;;;;;;;
2022/10/05 00:50:28;;;;;;;;;;;;;;;;;;;;;
2022/10/05 01:41:19;;;;;;;;;;;;;;;;;;;;;
2022/10/05 01:45:36;;;;;;;2.58;2.38;;;7.10;99.90;;;;;;6113657;23;20026;-89
2022/10/05 01:49:11;;;;;;;;;;;;;;;;;;;;;
2022/10/05 01:52:59;;;;;;;2.33;2.13;;;7.40;99.90;;;;;;6188646;22;19922;-89
2022/10/05 02:00:53;;;;;;;3.38;2.85;;;7.40;99.90;;;;;;6196803;23;20023;-89
2022/10/05 02:23:23;;;;;;;2.40;2.17;;;8.00;99.90;;;;;;5731960;24;20381;-88
2022/10/05 02:44:45;;;;;;;;;;;;;;;;;;;;;
2022/10/05 02:48:34;;;;;;;3.42;3.13;;;7.60;99.90;;;;;;6145875;23;20021;-88
2022/10/05 02:57:15;;;;;;;3.28;2.40;;;7.50;99.90;;;;;;6063660;23;20010;-88
2022/10/05 03:01:38;;;;;;;2.22;2.03;;;7.30;99.90;;;;;;6080470;23;20031;-89
2022/10/05 03:19:51;;;;;;;2.20;2.00;;;6.70;99.90;;;;;;6096633;23;20022;-89
2022/10/05 03:23:52;;;;;;;3.70;2.85;;;6.60;99.90;;;;;;6052454;23;20018;-89
2022/10/05 03:28:22;;;;;;;11.02;2.50;;;6.60;99.90;;;;;;6014715;23;20027;-89
2022/10/05 03:32:38;;;;;;;14.40;3.28;;;6.40;99.90;;;;;;5929115;23;20568;-90
2022/10/05 03:44:12;;;;;;;3.00;2.80;;;5.90;99.90;;;;;;6063220;23;20022;-90
2022/10/05 03:47:45;;;;;;;2.83;2.63;;;5.90;99.90;;;;;;6069592;23;20023;-89
2022/10/05 03:51:20;;;;;;;2.65;2.42;;;6.00;99.90;;;;;;6051846;23;20026;-89
2022/10/05 03:54:20;;;;;;;2.72;2.53;;;6.10;99.90;;;;;;6013967;23;20030;-90
2022/10/05 03:57:49;;;;;;;2.22;2.03;;;6.00;99.90;;;;;;6116103;23;20028;-89
2022/10/05 04:00:35;;;;;;;2.90;2.65;;;5.90;99.90;;;;;;6098572;23;20029;-89
2022/10/05 04:04:02;;;;;;;2.83;2.50;;;5.90;99.90;;;;;;6166195;23;20377;-90
2022/10/05 04:06:54;;;;;;;3.88;3.53;;;6.00;99.90;;;;;;6114332;23;20025;-90
2022/10/05 04:09:39;;;;;;;;;;;;;;;;;;;;;
2022/10/05 04:12:44;;;;;;;3.10;2.80;;;6.10;99.90;;;;;;6137592;23;20033;-90
2022/10/05 04:15:33;;;;;;;2.63;2.47;;;6.10;99.90;;;;;;6147340;23;20491;-90
2022/10/05 04:18:20;;;;;;;2.10;1.90;;;6.00;99.90;;;;;;6145679;23;20029;-88
2022/10/05 04:21:12;;;;;;;2.92;2.70;;;5.90;99.90;;;;;;6125571;23;20025;-90
2022/10/05 04:24:34;;;;;;;4.03;2.25;;;5.80;99.90;;;;;;6125828;23;20035;-89
2022/10/05 04:27:15;;;;;;;3.58;2.40;;;5.90;99.90;;;;;;6148925;23;20325;-90
2022/10/05 04:29:49;;;;;;;3.95;1.90;;;5.90;99.90;;;;;;6135360;23;20024;-89
2022/10/05 04:32:27;;;;;;;1.90;1.80;;;5.80;99.90;;;;;;6180077;23;20024;-90
2022/10/05 04:35:24;;;;;;;3.85;3.20;;;5.80;99.90;;;;;;6156218;23;20029;-90
2022/10/05 04:38:57;;;;;;;3.35;2.22;;;5.80;99.90;;;;;;6168692;23;20451;-89
2022/10/05 04:41:42;;;;;;;2.42;2.22;;;5.70;99.90;;;;;;6197834;23;20016;-89
2022/10/05 04:44:43;;;;;;;1.85;1.75;;;5.70;99.90;;;;;;6187796;23;20028;-85
2022/10/05 04:47:37;;;;;;;2.10;2.00;;;5.60;99.90;;;;;;6167076;23;20017;-88
2022/10/05 04:50:05;;;;;;;5.40;2.42;;;5.60;99.90;;;;;;6163304;23;20024;-89
2022/10/05 04:52:58;;;;;;;2.65;2.45;;;5.40;99.90;;;;;;6139679;23;20020;-89
2022/10/05 04:55:51;;;;;;;3.42;2.45;;;5.40;99.90;;;;;;6151331;23;20028;-89
2022/10/05 04:58:32;;;;;;;3.42;2.00;;;5.40;99.90;;;;;;6162967;23;20344;-88
2022/10/05 05:01:44;;;;;;;3.92;2.50;;;5.50;99.90;;;;;;6196715;23;20020;-88
2022/10/05 05:05:39;;;;;;;1.65;1.52;;;5.50;99.90;;;;;;6142812;23;20017;-86
2022/10/05 05:09:19;;;;;;;5.13;3.53;;;5.20;99.90;;;;;;6106447;23;20021;-87
2022/10/05 05:12:11;;;;;;;2.63;2.38;;;5.10;99.90;;;;;;6183454;23;20017;-81
2022/10/05 05:14:46;;;;;;;3.38;3.10;;;5.20;99.90;;;;;;6164146;23;20028;-80
2022/10/05 05:18:26;;;;;;;2.60;2.40;;;5.30;99.90;;;;;;6167938;23;20009;-91
2022/10/05 05:21:41;;;;;;;4.10;3.72;;;5.30;99.90;;;;;;6136740;23;20822;-89
2022/10/05 05:24:41;;;;;;;4.15;3.15;;;5.40;99.90;;;;;;6158016;23;20168;-89
2022/10/05 05:27:18;;;;;;;2.35;2.15;;;5.30;99.90;;;;;;6058817;23;20031;-89
2022/10/05 05:30:02;;;;;;;2.33;2.22;;;5.20;99.90;;;;;;6182618;23;20021;-89
2022/10/05 05:32:43;;;;;;;1.88;1.75;;;5.10;99.90;;;;;;6110510;23;20032;-88
2022/10/05 05:35:26;;;;;;;2.33;2.13;;;5.10;99.90;;;;;;6161688;23;20345;-85
2022/10/05 05:38:18;;;;;;;2.30;2.08;;;5.10;99.90;;;;;;6133362;23;20021;-89
2022/10/05 05:41:11;;;;;;;2.95;2.67;;;5.10;99.90;;;;;;6185765;23;20472;-88
2022/10/05 05:43:58;;;;;;;9.23;8.73;;;5.20;99.90;;;;;;6134028;23;20360;-90
2022/10/05 05:46:34;;;;;;;4.93;2.35;;;5.20;99.90;;;;;;6133470;23;20043;-89
2022/10/05 05:49:58;;;;;;;3.05;2.85;;;5.10;99.90;;;;;;6138428;23;20064;-90
2022/10/05 05:52:40;;;;;;;3.92;3.15;;;5.10;99.90;;;;;;6165209;23;20035;-89
2022/10/05 05:55:34;;;;;;;2.78;2.58;;;5.30;99.90;;;;;;6162130;23;20013;-90
2022/10/05 05:58:12;;;;;;;3.58;3.28;;;5.50;99.90;;;;;;6157823;23;20013;-89
2022/10/05 06:01:03;;;;;;;4.15;3.72;;;5.60;99.90;;;;;;6168351;23;20662;-89
2022/10/05 06:03:54;;;;;;;6.50;3.22;;;5.70;99.90;;;;;;6089869;23;20021;-89
2022/10/05 06:06:37;;;;;;;2.80;2.60;;;5.90;99.90;;;;;;6132615;23;20021;-89
2022/10/05 06:09:29;;;;;;;5.60;2.63;;;5.90;99.90;;;;;;6109636;23;20024;-88
2022/10/05 06:12:37;;;;;;;2.95;2.75;;;6.00;99.90;;;;;;6154504;23;20047;-89
2022/10/05 06:15:23;;;;;;;4.95;3.78;;;6.00;99.90;;;;;;6137791;23;20337;-90
2022/10/05 06:17:55;;;;;;;2.67;2.47;;;6.10;99.90;;;;;;6157487;23;20020;-88
2022/10/05 06:20:45;;;;;;;4.00;2.92;;;6.30;99.90;;;;;;6109947;23;20638;-89
2022/10/05 06:23:21;;;;;;;8.07;7.13;;;6.50;99.90;;;;;;6132716;23;20024;-89
2022/10/05 06:26:11;;;;;;;3.15;2.67;;;6.70;99.90;;;;;;6109111;23;20029;-88
2022/10/05 06:28:41;;;;;;;3.20;2.43;;;6.90;99.90;;;;;;6193303;23;20020;-89
2022/10/05 06:31:34;;;;;;;2.70;2.28;;;7.20;99.90;;;;;;6182812;23;20567;-88
2022/10/05 06:34:20;;;;;;;6.60;4.40;;;7.50;99.90;;;;;;6133568;23;20017;-88
2022/10/05 06:36:54;;;;;;;3.60;2.50;;;7.70;99.90;;;;;;6157930;23;20329;-89
2022/10/05 06:39:40;;;;;;;2.45;2.25;;;7.80;99.90;;;;;;6108471;23;20040;-88
2022/10/05 06:42:57;;;;;;;2.63;2.40;;;7.90;99.90;;;;;;6108474;23;20021;-88
2022/10/05 06:45:55;;;;;;;3.60;2.58;;;8.10;99.90;;;;;;6158417;23;20052;-88
2022/10/05 06:48:38;;;;;;;9.48;2.40;;;8.10;99.90;;;;;;6183948;23;20028;-87
2022/10/05 06:51:23;;;;;;;12.63;7.57;;;8.10;99.90;;;;;;6157075;23;20453;-88
2022/10/05 06:54:32;;;;;;;3.47;2.38;;;8.30;99.90;;;;;;6154153;23;20021;-88
2022/10/05 06:57:35;;;;;;;3.20;2.45;;;8.40;99.90;;;;;;6157882;23;20021;-88
2022/10/05 07:00:23;;;;;;;2.95;2.10;;;8.70;99.90;;;;;;6133008;23;20040;-87
2022/10/05 07:03:02;;;;;;;2.30;1.85;;;9.10;99.90;;;;;;6155835;23;20044;-88
2022/10/05 07:05:41;;;;;;;10.48;8.35;;;9.40;99.90;;;;;;6133657;23;20476;-88
2022/10/05 07:08:15;;;;;;;2.80;1.92;;;9.60;99.90;;;;;;6131812;23;20021;-88
2022/10/05 07:11:03;;;;;;;11.55;9.63;;;9.80;99.90;;;;;;6132095;23;20025;-89
2022/10/05 07:13:44;;;;;;;5.15;3.30;;;10.00;99.90;;;;;;6159828;23;20388;-89
2022/10/05 07:57:49;;;;;;;1.65;1.55;;;11.20;99.90;;;;;;5845062;24;20029;-87
2022/10/05 08:16:13;;;;;;;1.52;1.40;;;12.00;99.90;;;;;;5957363;23;20065;-87
2022/10/05 09:45:53;;;;;;;;;;;;;;;;;;;;;
2022/10/05 11:20:23;;;;;;;2.05;1.00;;;18.60;99.90;;;;;;6153229;23;20025;-87
2022/10/05 11:36:39;;;;;;;1.00;0.90;;;18.90;99.90;;;;;;6028646;23;20156;-90
2022/10/05 11:39:54;;;;;;;2.03;1.20;;;19.20;99.90;;;;;;6019589;23;20019;-88
2022/10/05 11:42:55;;;;;;;0.82;0.80;;;19.20;99.90;;;;;;6196326;23;20039;-89
2022/10/05 11:49:56;;;;;;;1.48;1.38;;;19.30;99.90;;;;;;6176177;23;20036;-90
2022/10/05 11:52:52;;;;;;;6.40;0.88;;;19.60;99.90;;;;;;6169893;23;20031;-90
2022/10/05 12:08:48;;;;;;;1.08;0.98;;;19.50;99.90;;;;;;6029165;23;20042;-91
2022/10/05 12:12:07;;;;;;;2.13;1.63;;;19.50;99.90;;;;;;6021589;23;20027;-90
2022/10/05 12:24:37;;;;;;;3.03;0.90;;;19.80;99.90;;;;;;5958050;23;20491;-89
2022/10/05 12:31:49;;;;;;;1.45;0.90;;;19.70;99.90;;;;;;6096185;23;20019;-86
2022/10/05 12:34:54;;;;;;;0.82;0.82;;;19.80;99.90;;;;;;6077858;23;20025;-89
2022/10/05 12:37:56;;;;;;;1.10;0.80;;;19.80;99.90;;;;;;6112156;23;20445;-89
2022/10/05 12:41:07;;;;;;;1.30;1.20;;;19.90;99.90;;;;;;6100437;23;20460;-88
2022/10/05 12:48:48;;;;;;;;;;;;;;;;;;;;;
2022/10/05 13:44:07;;;;;;;7.37;1.20;;;19.90;99.90;;;;;;6134281;23;20025;31
2022/10/05 13:46:47;;;;;;;1.50;1.40;;;19.90;99.90;;;;;;6071964;23;20022;-86
2022/10/05 15:04:25;;;;;;;1.58;1.23;;;19.10;99.90;;;;;;6153195;22;20024;-90
2022/10/05 15:07:35;;;;;;;1.35;1.23;;;19.10;99.90;;;;;;6213691;23;20471;-90
2022/10/05 15:10:33;;;;;;;1.17;0.93;;;19.00;99.90;;;;;;6169899;23;20012;-89
2022/10/05 15:13:52;;;;;;;0.70;0.70;;;19.00;99.90;;;;;;6150094;23;20351;-90
2022/10/05 15:17:02;;;;;;;1.42;1.25;;;19.00;99.90;;;;;;6149549;23;20027;-89
2022/10/05 15:19:47;;;;;;;1.23;0.82;;;18.90;99.90;;;;;;6149695;23;20027;-90
2022/10/05 15:28:06;;;;;;;;;;;18.80;99.90;;;;;;6251032;23;20054;-90
2022/10/05 15:31:00;;;;;;;2.80;0.77;;;18.80;99.90;;;;;;6170612;23;19915;-90
2022/10/05 15:33:59;;;;;;;2.33;0.82;;;18.70;99.90;;;;;;6136330;23;20480;-89
2022/10/05 15:37:18;;;;;;;1.08;0.98;;;18.50;99.90;;;;;;6200095;23;20031;-89
2022/10/05 15:40:13;;;;;;;1.35;1.25;;;18.40;99.90;;;;;;6179470;23;20031;-90
2022/10/05 15:43:00;;;;;;;1.70;1.05;;;18.20;99.90;;;;;;6169844;23;20444;-90
2022/10/05 15:46:32;;;;;;;1.13;1.02;;;18.20;99.90;;;;;;6171705;23;20340;-89
2022/10/05 15:49:27;;;;;;;0.98;0.95;;;18.10;99.90;;;;;;6096917;23;20036;-89
2022/10/05 15:52:01;;;;;;;2.05;1.85;;;17.90;99.90;;;;;;6194527;23;20046;-89
2022/10/05 15:54:40;;;;;;;2.33;1.10;;;17.80;99.90;;;;;;6170224;23;20471;-92
2022/10/05 15:57:35;;;;;;;1.58;1.48;;;17.70;99.90;;;;;;6169218;23;20336;-89
2022/10/05 16:00:19;;;;;;;1.35;1.02;;;17.60;99.90;;;;;;6170485;23;20447;-89
2022/10/05 16:03:13;;;;;;;5.05;2.50;;;17.40;99.90;;;;;;6180429;23;20012;-90
2022/10/05 16:09:15;;;;;;;3.40;1.25;;;17.20;99.90;;;;;;6193933;23;20025;-89
2022/10/05 16:11:57;;;;;;;3.67;1.42;;;17.20;99.90;;;;;;6169242;23;20455;-90
2022/10/05 16:14:53;;;;;;;3.08;1.35;;;17.30;99.90;;;;;;6195166;23;20023;-89
2022/10/05 16:17:36;;;;;;;1.52;1.25;;;17.20;99.90;;;;;;6180093;23;20028;-89
2022/10/05 16:20:37;;;;;;;5.53;2.55;;;17.00;99.90;;;;;;6193550;23;20028;-89
2022/10/05 16:23:51;;;;;;;1.45;1.17;;;16.90;99.90;;;;;;6194624;23;20016;-90
2022/10/05 16:26:37;;;;;;;2.50;1.15;;;16.70;99.90;;;;;;6171252;23;20020;-90
2022/10/05 16:29:13;;;;;;;9.40;2.30;;;16.60;99.90;;;;;;6169723;23;20035;-88
2022/10/05 16:32:09;;;;;;;2.47;0.85;;;16.40;99.90;;;;;;6193756;23;20023;-89
2022/10/05 16:35:16;;;;;;;1.10;0.90;;;16.20;99.90;;;;;;6206367;23;20008;-88
2022/10/05 16:38:05;;;;;;;1.50;1.20;;;15.90;99.90;;;;;;6115084;23;20370;-88
2022/10/05 16:40:59;;;;;;;1.88;1.50;;;15.80;99.90;;;;;;6168813;23;20028;-89
2022/10/05 16:44:23;;;;;;;1.13;1.08;;;15.70;99.90;;;;;;6160335;23;20020;-92
2022/10/05 16:47:06;;;;;;;2.03;1.88;;;15.60;99.90;;;;;;6194328;23;20021;-90
2022/10/05 16:50:01;;;;;;;1.50;1.40;;;15.50;99.90;;;;;;6171323;23;20012;-89
2022/10/05 16:57:39;;;;;;;2.03;1.20;;;15.20;99.90;;;;;;6193209;23;20020;-88
2022/10/05 17:01:06;;;;;;;2.53;1.45;;;15.00;99.90;;;;;;6176076;23;20031;-88
2022/10/05 17:04:59;;;;;;;3.90;2.72;;;14.90;99.90;;;;;;6161005;22;20036;-88
2022/10/05 17:32:02;;;;;;;1.45;1.45;;;13.80;99.90;;;;;;6021543;23;20582;-91
2022/10/05 17:35:44;;;;;;;;;;;;;;;;;;;;;
2022/10/05 17:40:01;;;;;;;4.20;1.60;;;13.70;99.90;;;;;;6007506;23;20036;-93
2022/10/05 17:44:29;;;;;;;;;;;;;;;;;;;;;
2022/10/05 17:49:15;;;;;;;1.65;1.55;;;13.50;99.90;;;;;;5922364;24;20472;-93
2022/10/05 18:05:11;;;;;;;2.10;2.00;;;13.20;99.90;;;;;;6099873;23;20083;-89
2022/10/05 18:13:01;;;;;;;3.53;2.85;;;13.10;99.90;;;;;;6111794;23;20032;-89
2022/10/05 23:31:39;;;;;;;2.03;1.90;;;11.00;99.90;;;;;;6225645;23;20028;-87
2022/10/05 23:35:17;;;;;;;1.70;1.60;;;11.80;99.90;;;;;;6170507;23;20024;-87
2022/10/05 23:37:56;;;;;;;2.72;1.80;;;12.80;99.90;;;;;;6191539;23;20719;-87
2022/10/05 23:40:47;;;;;;;1.77;1.13;;;13.70;99.90;;;;;;6176512;23;20407;-87
2022/10/05 23:43:27;;;;;;;1.50;1.40;;;14.00;99.90;;;;;;6152460;23;20351;-88
2022/10/05 23:46:08;;;;;;;3.42;0.98;;;14.40;99.90;;;;;;6167666;23;20035;-87
2022/10/05 23:48:44;;;;;;;1.88;1.73;;;14.40;99.90;;;;;;6152451;23;20028;-87
2022/10/05 23:51:47;;;;;;;5.85;1.10;;;14.60;99.90;;;;;;6215196;23;20031;-88
2022/10/05 23:55:09;;;;;;;0.93;0.93;;;14.30;99.90;;;;;;6219982;23;20016;-87
